Portland, OR

8:18 PM PST on November 27, 2014 (GMT -0800)
Portland - West Hills | Change Station
CLOSE
Current Station
Personal Weather Station
Location: Portland, OR
Elevation: 820 ft
Nearby Weather Stations
Active Advisory: Special Statement Active Notice: Record Report

Elev 820 ft 45.49 °N, 122.69 °W | Updated 24 seconds ago

Overcast
Overcast
51.3 °F
Feels Like 51.3 °F
N
5.0
Wind Variable Wind from South
Gusts 19.0 mph

Today
High -- | Low -- °F
--% Chance of Precip.
Yesterday
High -- | Low -- °F
Precip. -- in
7:25 AM 4:30 PM
Waxing Crescent, 36% visible
Pressure 29.87 in
Visibility 10.0 miles
Clouds Scattered Clouds 3200 ft
Mostly Cloudy 4500 ft
Mostly Cloudy 7000 ft
Dew Point 36 °F
Humidity 56%
Rainfall 0.02 in
Snow Depth Not available.
UV 0 out of 12
Pollen .30 out of 12
Air Quality Not available.
Flu Activity Not available.
METAR KPDX 280353Z 19012KT 10SM SCT032 BKN045 BKN070 13/09 A2987 RMK AO2 RAE28 SLP115 P0000 T01330089

More Conditions Fewer Conditions

Pressure 29.87 in
Visibility 10.0 miles
Clouds Scattered Clouds 3200 ft
Mostly Cloudy 4500 ft
Mostly Cloudy 7000 ft
Dew Point 36 °F
Humidity 56%
Rainfall 0.02 in
Snow Depth Not available.
UV 0 out of 12
Pollen .30 out of 12
Air Quality Not available.
Flu Activity Not available.
METAR KPDX 280353Z 19012KT 10SM SCT032 BKN045 BKN070 13/09 A2987 RMK AO2 RAE28 SLP115 P0000 T01330089

More Conditions Fewer Conditions

10-Day Weather Forecast

Almanac

Astronomy

Nov. 27, 2014 Rise Set
Actual Time
Civil Twilight
Nautical Twilight
Astronomical Twilight
Moon
Length of Visible Light
Length of Day
Tomorrow will be .
, % of the Moon is Illuminated

Today's Extremes

State Highs State Lows

Community

WunderPhotos

Upload Photos

1,774,179 photos uploaded!

WunderBlogs® & News

Nearby

Air Quality

  Air Quality AQ Index Pollutant
Not available.

Snow Depth

Station Depth Elevation

Earthquake Activity

City Distance Mag. Time & Date
Minimum magnitude displayed is 2.5.

Coastal Water Temperatures

Place Temperature

Nearby Weather Stations